Time;durP1;ratioP1;P1;durP2;ratioP2;P2;SDS_P1;SDS_P2;PMS_P1;PMS_P2;Temp;Humidity;BMP_temperature;BMP_pressure;BME280_temperature;BME280_humidity;BME280_pressure;Samples;Min_cycle;Max_cycle;Signal;HPM_P1;HPM_P2
2023/06/22 04:02:05;;;;;;;9.80;4.67;;;19.30;97.30;;;;;;5322976;23;20911;-87
2023/06/22 04:04:35;;;;;;;5.00;3.37;;;19.40;97.30;;;;;;4949088;28;20526;-88
2023/06/22 04:07:03;;;;;;;8.80;5.90;;;19.40;97.30;;;;;;4942762;29;20506;-88
2023/06/22 04:09:36;;;;;;;9.20;4.43;;;19.40;97.30;;;;;;4948707;29;20446;-87
2023/06/22 04:12:04;;;;;;;7.17;5.53;;;19.40;97.30;;;;;;4949999;29;20451;-88
2023/06/22 04:14:33;;;;;;;12.73;5.70;;;19.40;97.30;;;;;;4953412;29;20426;-87
2023/06/22 04:17:04;;;;;;;12.00;7.10;;;19.40;97.30;;;;;;4952502;29;20419;-87
2023/06/22 04:19:37;;;;;;;17.23;4.53;;;19.40;97.30;;;;;;4952102;29;20422;-90
2023/06/22 04:22:07;;;;;;;4.00;3.70;;;19.50;97.30;;;;;;4952971;28;20457;-89
2023/06/22 04:24:35;;;;;;;13.07;7.40;;;19.50;97.30;;;;;;4942428;29;20442;-89
2023/06/22 04:27:02;;;;;;;10.90;5.50;;;19.50;97.30;;;;;;4944477;29;20470;-89
2023/06/22 04:29:34;;;;;;;7.53;5.30;;;19.60;97.30;;;;;;4949828;29;20442;-89
2023/06/22 04:32:16;;;;;;;6.90;4.27;;;19.60;97.30;;;;;;4949641;29;20564;-89
2023/06/22 04:34:57;;;;;;;11.00;5.00;;;19.70;97.30;;;;;;4953454;29;20486;-89
2023/06/22 04:37:25;;;;;;;14.97;6.37;;;19.70;97.30;;;;;;4944375;29;20454;-89
2023/06/22 04:39:54;;;;;;;6.63;3.83;;;19.80;97.30;;;;;;4952062;29;20431;-90
2023/06/22 04:42:27;;;;;;;6.70;4.90;;;19.80;97.30;;;;;;4944074;29;21022;-91
2023/06/22 04:44:53;;;;;;;12.63;7.33;;;19.90;97.30;;;;;;4948404;29;20807;-89
2023/06/22 04:47:19;;;;;;;6.70;4.07;;;19.90;97.30;;;;;;4952053;29;20469;-90
2023/06/22 04:49:44;;;;;;;5.80;5.23;;;20.00;97.30;;;;;;4945954;29;20645;-89
2023/06/22 04:52:20;;;;;;;10.93;6.60;;;20.00;97.30;;;;;;4944740;29;20207;-89
2023/06/22 04:54:47;;;;;;;8.30;5.13;;;20.00;97.30;;;;;;4952927;29;20186;-91
2023/06/22 04:57:13;;;;;;;17.03;6.00;;;20.10;97.30;;;;;;4943792;29;20843;-89
2023/06/22 04:59:41;;;;;;;15.80;5.80;;;20.10;97.30;;;;;;4947963;29;20427;-90
2023/06/22 05:02:08;;;;;;;18.93;6.33;;;20.20;97.30;;;;;;4950877;29;20478;-89
2023/06/22 05:04:35;;;;;;;12.30;4.90;;;20.20;97.30;;;;;;4953569;29;20453;-89
2023/06/22 05:07:04;;;;;;;6.57;3.87;;;20.30;97.30;;;;;;4953265;29;20463;-89
2023/06/22 05:09:35;;;;;;;6.90;3.90;;;20.30;97.30;;;;;;4953212;29;20453;-88
2023/06/22 05:12:04;;;;;;;15.80;5.70;;;20.40;97.30;;;;;;4951364;28;20447;-89
2023/06/22 05:14:45;;;;;;;9.43;5.17;;;20.40;97.30;;;;;;4953462;29;20430;-89
2023/06/22 05:17:13;;;;;;;8.33;5.33;;;20.50;97.30;;;;;;4951595;29;20445;-89
2023/06/22 05:19:48;;;;;;;5.37;5.07;;;20.50;97.30;;;;;;4953076;29;20458;-89
2023/06/22 05:22:16;;;;;;;6.67;5.50;;;20.60;97.30;;;;;;4953560;28;20468;-89
2023/06/22 05:24:44;;;;;;;7.33;5.70;;;20.60;97.30;;;;;;4953507;29;20521;-89
2023/06/22 05:27:15;;;;;;;11.40;7.17;;;20.60;97.30;;;;;;4952369;29;20518;-89
2023/06/22 05:29:44;;;;;;;13.00;5.20;;;20.70;97.30;;;;;;4951278;29;20773;-89
2023/06/22 05:32:18;;;;;;;7.10;4.60;;;20.70;97.30;;;;;;4952383;28;20446;-89
2023/06/22 05:34:44;;;;;;;16.87;5.90;;;20.80;97.30;;;;;;4953197;29;20474;-89
2023/06/22 05:37:35;;;;;;;6.33;5.50;;;20.80;97.30;;;;;;4942933;29;20431;-89
2023/06/22 05:40:04;;;;;;;4.53;4.23;;;20.90;97.30;;;;;;4949597;29;20741;-89
2023/06/22 05:42:46;;;;;;;7.40;4.57;;;20.90;97.30;;;;;;4951668;28;20461;-89
2023/06/22 05:45:15;;;;;;;12.53;6.10;;;21.00;97.30;;;;;;4950578;29;20462;-90
2023/06/22 05:47:43;;;;;;;11.90;6.80;;;21.00;97.30;;;;;;4947013;29;20461;-90
2023/06/22 05:50:16;;;;;;;12.63;6.17;;;21.10;97.30;;;;;;4952183;29;20583;-89
2023/06/22 05:52:45;;;;;;;4.10;3.87;;;21.10;97.30;;;;;;4948012;28;20443;-90
2023/06/22 05:55:25;;;;;;;8.43;5.47;;;21.10;97.30;;;;;;4950614;29;20814;-89
2023/06/22 05:57:53;;;;;;;9.37;6.60;;;21.20;97.30;;;;;;4947415;29;20430;-89
2023/06/22 06:02:49;;;;;;;13.43;6.63;;;21.30;97.30;;;;;;4965214;23;20489;-64
2023/06/22 06:05:14;;;;;;;12.03;4.87;;;21.30;97.30;;;;;;4950261;28;20461;-64
2023/06/22 06:07:40;;;;;;;9.93;5.80;;;21.40;97.30;;;;;;4959355;28;20498;-64
2023/06/22 06:10:07;;;;;;;9.80;5.07;;;21.50;97.30;;;;;;4962913;28;20737;-63
2023/06/22 06:12:32;;;;;;;8.73;6.80;;;21.60;97.30;;;;;;4947792;29;20462;-64
2023/06/22 06:14:58;;;;;;;9.83;4.70;;;21.70;97.30;;;;;;4945118;29;20938;-64
2023/06/22 06:17:23;;;;;;;11.83;5.00;;;21.70;97.30;;;;;;4943083;29;20276;-63
2023/06/22 06:19:49;;;;;;;7.63;5.77;;;21.80;97.30;;;;;;4952811;29;20187;-64
2023/06/22 06:22:14;;;;;;;8.77;5.70;;;21.90;97.30;;;;;;4953917;28;20567;-64
2023/06/22 06:24:40;;;;;;;5.20;4.90;;;22.00;97.30;;;;;;4963597;28;20183;-64
2023/06/22 06:27:05;;;;;;;9.37;5.53;;;22.10;97.30;;;;;;4951439;29;20206;-64
2023/06/22 06:29:34;;;;;;;8.30;4.23;;;22.20;97.30;;;;;;4945868;29;20747;-63
2023/06/22 06:31:59;;;;;;;6.83;3.90;;;22.30;97.30;;;;;;4940096;29;20686;-64
2023/06/22 06:34:25;;;;;;;10.00;5.90;;;22.40;97.30;;;;;;4953262;28;20426;-64
2023/06/22 06:36:50;;;;;;;6.33;5.40;;;22.40;97.30;;;;;;4960714;28;20179;-64
2023/06/22 06:39:16;;;;;;;12.80;7.80;;;22.50;97.30;;;;;;4968393;28;20187;-64
2023/06/22 06:41:42;;;;;;;6.60;4.70;;;22.60;97.30;;;;;;4944419;28;20212;-64
2023/06/22 06:44:07;;;;;;;5.47;3.63;;;22.60;97.30;;;;;;4950795;29;20186;-64
2023/06/22 06:46:33;;;;;;;9.30;5.07;;;22.70;97.30;;;;;;4937786;29;20217;-64
2023/06/22 06:48:58;;;;;;;7.80;5.67;;;22.80;97.30;;;;;;4953731;29;20189;-64
2023/06/22 06:51:24;;;;;;;17.70;6.70;;;22.80;97.30;;;;;;4953342;28;20246;-64
2023/06/22 06:53:49;;;;;;;7.37;5.37;;;22.80;97.30;;;;;;4952014;29;20186;-65
2023/06/22 06:56:15;;;;;;;5.50;4.10;;;22.90;97.30;;;;;;4952853;29;20620;-64
2023/06/22 06:58:44;;;;;;;8.90;6.20;;;22.90;97.30;;;;;;4952595;28;20191;-64
2023/06/22 07:01:11;;;;;;;6.43;3.80;;;23.00;97.30;;;;;;4951707;29;20482;-64
2023/06/22 07:03:37;;;;;;;12.13;5.50;;;23.10;97.30;;;;;;4957218;28;20423;-64
2023/06/22 07:06:02;;;;;;;5.40;4.97;;;23.20;97.30;;;;;;4953686;28;20469;-64
2023/06/22 07:08:28;;;;;;;8.10;4.10;;;23.30;97.30;;;;;;4952998;29;20179;-64
2023/06/22 07:10:54;;;;;;;15.83;4.47;;;23.40;97.30;;;;;;4957133;28;20255;-64
2023/06/22 07:13:19;;;;;;;6.77;5.20;;;23.40;97.30;;;;;;4943176;29;20938;-64
2023/06/22 07:15:45;;;;;;;4.00;3.10;;;23.50;97.30;;;;;;4953531;28;20222;-64
2023/06/22 07:18:10;;;;;;;8.90;5.40;;;23.50;97.30;;;;;;4945291;28;20183;-64
2023/06/22 07:20:36;;;;;;;13.53;5.67;;;23.60;97.30;;;;;;4968368;28;20234;-64
2023/06/22 07:23:01;;;;;;;5.43;4.97;;;23.70;97.30;;;;;;4951169;29;20182;-67
2023/06/22 07:25:27;;;;;;;6.27;4.40;;;23.70;97.30;;;;;;4944673;29;20171;-65
2023/06/22 07:28:02;;;;;;;8.83;5.37;;;23.80;97.30;;;;;;4943928;29;20211;-65
2023/06/22 07:30:29;;;;;;;6.93;3.97;;;23.80;97.30;;;;;;4945482;28;20237;-65
2023/06/22 07:32:55;;;;;;;8.70;5.80;;;23.90;97.30;;;;;;4958036;28;20456;-64
2023/06/22 07:35:20;;;;;;;8.00;4.40;;;24.00;97.30;;;;;;4950620;29;20455;-65
2023/06/22 07:37:46;;;;;;;3.50;3.30;;;24.10;97.30;;;;;;4963537;28;20187;-65
2023/06/22 07:40:12;;;;;;;6.17;5.30;;;24.20;97.30;;;;;;4943140;29;20172;-65
2023/06/22 07:42:37;;;;;;;7.40;3.97;;;24.30;97.30;;;;;;4946012;29;20187;-65
2023/06/22 07:45:04;;;;;;;7.07;5.03;;;24.40;97.30;;;;;;4959410;28;20274;-65
2023/06/22 07:47:29;;;;;;;7.57;4.70;;;24.50;97.30;;;;;;4944116;29;20229;-64
2023/06/22 07:49:58;;;;;;;5.13;4.10;;;24.70;97.30;;;;;;4951383;29;20474;-65
2023/06/22 07:52:25;;;;;;;9.40;4.33;;;24.80;97.30;;;;;;4950407;28;20226;-66
2023/06/22 07:54:51;;;;;;;4.80;3.13;;;24.90;97.30;;;;;;4962410;28;20457;-65
2023/06/22 07:57:16;;;;;;;5.70;3.80;;;25.10;97.30;;;;;;4939984;29;20412;-64
2023/06/22 07:59:43;;;;;;;6.17;4.57;;;25.20;97.30;;;;;;4943649;29;20667;-65
2023/06/22 08:02:09;;;;;;;8.93;4.90;;;25.30;97.30;;;;;;4948329;28;20234;-65
2023/06/22 08:04:35;;;;;;;5.23;4.63;;;25.40;97.30;;;;;;4960638;28;20432;-64
2023/06/22 08:07:01;;;;;;;7.63;4.80;;;25.50;97.30;;;;;;4937309;29;20455;-65
2023/06/22 08:09:32;;;;;;;5.70;3.40;;;25.50;97.30;;;;;;4940303;29;20562;-65
2023/06/22 08:11:58;;;;;;;8.93;5.40;;;25.60;97.30;;;;;;4950422;28;20447;-64
2023/06/22 08:14:25;;;;;;;14.90;6.10;;;25.70;97.30;;;;;;4951513;28;20434;-64
2023/06/22 08:16:50;;;;;;;6.53;4.37;;;25.70;97.30;;;;;;4966410;28;20423;-65
2023/06/22 08:19:16;;;;;;;13.20;4.07;;;25.80;97.30;;;;;;4940982;29;20932;-64
2023/06/22 08:21:42;;;;;;;6.60;3.70;;;25.90;96.70;;;;;;4931988;29;20210;-65
2023/06/22 08:24:08;;;;;;;6.30;4.00;;;26.00;96.90;;;;;;4949012;29;20209;-64
2023/06/22 08:26:36;;;;;;;8.63;3.80;;;26.10;96.90;;;;;;4963597;28;20306;-65
2023/06/22 08:29:05;;;;;;;5.60;3.63;;;26.20;96.70;;;;;;4965165;28;20219;-65
2023/06/22 08:31:34;;;;;;;5.80;2.93;;;26.30;96.20;;;;;;4957156;28;20538;-65
2023/06/22 08:33:59;;;;;;;6.50;5.13;;;26.40;95.10;;;;;;4965795;28;20419;-65
2023/06/22 08:36:25;;;;;;;4.40;3.40;;;26.40;95.50;;;;;;4945505;29;20454;-65
2023/06/22 08:38:52;;;;;;;6.57;3.80;;;26.50;95.30;;;;;;4946631;29;20179;-65
2023/06/22 08:41:18;;;;;;;4.97;3.73;;;26.60;94.70;;;;;;4941278;28;20221;-65
2023/06/22 08:43:46;;;;;;;4.13;3.90;;;26.60;94.50;;;;;;4948259;29;20843;-65
2023/06/22 08:46:12;;;;;;;5.77;3.33;;;26.60;93.10;;;;;;4940409;29;20259;-65
2023/06/22 08:48:38;;;;;;;7.00;4.20;;;26.70;93.60;;;;;;4948234;29;20911;-64
2023/06/22 08:51:04;;;;;;;5.57;4.43;;;26.60;93.60;;;;;;4952711;28;20949;-65
2023/06/22 08:53:30;;;;;;;4.40;3.17;;;26.60;93.70;;;;;;4941693;29;20206;-65
2023/06/22 08:55:55;;;;;;;4.40;3.43;;;26.60;94.00;;;;;;4950284;29;20920;-65
2023/06/22 08:58:21;;;;;;;4.40;3.97;;;26.70;93.60;;;;;;4949000;28;20536;-64
2023/06/22 09:00:47;;;;;;;5.03;4.10;;;26.70;93.10;;;;;;4948744;28;20238;-65
2023/06/22 09:03:13;;;;;;;5.30;4.03;;;26.70;93.00;;;;;;4943016;28;20180;-65
2023/06/22 09:05:39;;;;;;;3.43;2.80;;;26.70;92.30;;;;;;4943375;28;20530;-64
2023/06/22 09:08:04;;;;;;;3.80;3.40;;;26.80;92.20;;;;;;4954971;28;20210;-65
2023/06/22 09:10:30;;;;;;;6.10;3.90;;;26.80;92.50;;;;;;4955093;28;20580;-65
2023/06/22 09:12:56;;;;;;;6.03;3.50;;;26.90;92.60;;;;;;4945648;29;20175;-64
2023/06/22 09:15:22;;;;;;;7.17;4.53;;;27.00;92.60;;;;;;4949365;29;20186;-65
2023/06/22 09:17:47;;;;;;;3.83;2.93;;;27.10;92.70;;;;;;4966216;28;20426;-65
2023/06/22 09:20:13;;;;;;;3.43;3.27;;;27.20;92.20;;;;;;4942645;28;20180;-65
2023/06/22 09:22:38;;;;;;;6.53;4.20;;;27.20;92.30;;;;;;4943195;28;20185;-65
2023/06/22 09:25:05;;;;;;;4.83;3.93;;;27.30;91.20;;;;;;4950899;28;20202;-65
2023/06/22 09:27:30;;;;;;;5.63;4.17;;;27.30;91.30;;;;;;4950812;29;20210;-65
2023/06/22 09:29:58;;;;;;;5.00;2.90;;;27.30;90.70;;;;;;4959477;28;20427;-65
2023/06/22 09:32:24;;;;;;;5.60;2.90;;;27.40;90.60;;;;;;4947546;29;20269;-65
2023/06/22 09:34:50;;;;;;;5.77;3.30;;;27.50;90.80;;;;;;4948910;28;20418;-65
2023/06/22 09:37:15;;;;;;;4.27;3.43;;;27.60;90.00;;;;;;4950478;28;20429;-65
2023/06/22 09:39:41;;;;;;;5.30;3.80;;;27.70;90.50;;;;;;4949368;28;20176;-65
2023/06/22 09:42:07;;;;;;;6.37;4.17;;;27.70;88.90;;;;;;4949532;29;20222;-65
2023/06/22 09:44:32;;;;;;;5.93;4.10;;;27.80;89.60;;;;;;4947116;29;20190;-66
2023/06/22 09:46:58;;;;;;;5.03;4.57;;;27.90;88.70;;;;;;4944656;29;20203;-66
2023/06/22 09:49:23;;;;;;;3.23;2.87;;;28.00;88.70;;;;;;4949304;28;20183;-66
2023/06/22 09:51:50;;;;;;;9.13;4.00;;;28.00;89.40;;;;;;4949177;29;20199;-65
2023/06/22 09:54:16;;;;;;;7.50;4.23;;;28.10;89.40;;;;;;4949430;29;20194;-67
2023/06/22 09:56:42;;;;;;;6.43;3.90;;;28.10;88.40;;;;;;4950654;29;20426;-66
2023/06/22 09:59:07;;;;;;;5.53;2.80;;;28.10;88.80;;;;;;4950922;29;20183;-66
2023/06/22 10:01:33;;;;;;;6.23;3.70;;;28.10;88.40;;;;;;4940765;29;20239;-66
2023/06/22 10:03:58;;;;;;;6.73;5.17;;;28.10;88.20;;;;;;4950745;28;20182;-66
2023/06/22 10:06:24;;;;;;;6.97;4.00;;;28.10;88.50;;;;;;4947102;29;20351;-64
2023/06/22 10:08:51;;;;;;;8.20;4.37;;;28.00;88.60;;;;;;4938037;29;20189;-65
2023/06/22 10:11:16;;;;;;;5.23;3.10;;;28.00;89.50;;;;;;4947872;28;20481;-65
2023/06/22 10:13:45;;;;;;;5.17;3.50;;;28.10;90.40;;;;;;4963129;23;20462;-91
2023/06/22 10:16:11;;;;;;;3.93;3.47;;;28.10;89.80;;;;;;4928949;29;20200;-87
2023/06/22 10:18:36;;;;;;;15.20;4.87;;;28.20;89.50;;;;;;4937934;29;20503;-90
2023/06/22 10:21:02;;;;;;;3.07;2.87;;;28.30;88.80;;;;;;4924835;29;20188;-86
2023/06/22 10:23:27;;;;;;;3.00;2.77;;;28.40;87.20;;;;;;4937640;29;20190;-87
2023/06/22 10:25:53;;;;;;;6.93;3.80;;;28.40;87.50;;;;;;4921536;29;20245;-89
2023/06/22 10:28:19;;;;;;;3.63;3.47;;;28.50;87.80;;;;;;4931443;23;20297;-62
2023/06/22 10:30:44;;;;;;;15.20;4.20;;;28.60;88.10;;;;;;4943901;28;20204;-63
2023/06/22 10:33:10;;;;;;;3.53;2.97;;;28.70;86.90;;;;;;4924136;29;20180;-62
2023/06/22 10:35:39;;;;;;;7.00;4.13;;;28.80;85.40;;;;;;4940479;29;20235;-62
2023/06/22 10:38:06;;;;;;;4.33;4.00;;;28.90;85.50;;;;;;4923816;29;20471;-63
2023/06/22 10:40:31;;;;;;;4.60;3.20;;;29.00;86.20;;;;;;4924143;29;20470;-62
2023/06/22 10:42:57;;;;;;;3.47;2.53;;;29.10;86.50;;;;;;4939903;29;20435;-62
2023/06/22 10:45:23;;;;;;;5.00;3.87;;;29.20;86.90;;;;;;4928954;29;20188;-63
2023/06/22 10:47:48;;;;;;;6.20;2.90;;;29.30;86.50;;;;;;4939988;28;20207;-63
2023/06/22 10:50:14;;;;;;;3.50;3.20;;;29.40;86.10;;;;;;4926545;29;20520;-63
2023/06/22 10:52:41;;;;;;;5.37;3.40;;;29.40;85.90;;;;;;4926544;29;20180;-62
2023/06/22 10:55:08;;;;;;;4.60;3.57;;;29.50;86.50;;;;;;4925794;29;20175;-62
2023/06/22 10:57:33;;;;;;;5.60;3.40;;;29.60;85.50;;;;;;4927092;29;20432;-62
2023/06/22 10:59:59;;;;;;;6.73;2.70;;;29.60;84.90;;;;;;4927432;29;20917;-62
2023/06/22 11:02:24;;;;;;;6.70;3.53;;;29.70;85.10;;;;;;4926789;29;20203;-62
2023/06/22 11:04:50;;;;;;;13.13;3.30;;;29.80;85.80;;;;;;4930106;29;20188;-63
2023/06/22 11:07:16;;;;;;;5.17;3.37;;;29.90;85.60;;;;;;4931565;29;20215;-60
2023/06/22 11:09:43;;;;;;;4.57;2.93;;;29.90;83.60;;;;;;4932419;29;20656;-60
2023/06/22 11:12:09;;;;;;;3.83;2.67;;;29.80;82.90;;;;;;4931650;29;20443;-61
2023/06/22 11:14:34;;;;;;;5.93;3.87;;;29.70;83.30;;;;;;4946019;29;20438;-59
2023/06/22 11:17:00;;;;;;;3.40;2.73;;;29.70;84.00;;;;;;4931100;29;20255;-59
2023/06/22 11:19:25;;;;;;;2.77;2.30;;;29.70;84.20;;;;;;4929422;29;20172;-60
2023/06/22 11:21:51;;;;;;;5.60;4.60;;;29.80;84.50;;;;;;4926347;29;20699;-58
2023/06/22 11:24:17;;;;;;;5.20;3.53;;;29.80;84.30;;;;;;4932229;29;20176;-60
2023/06/22 11:26:43;;;;;;;5.63;3.27;;;29.80;83.30;;;;;;4929519;29;20246;-59
2023/06/22 11:29:09;;;;;;;5.83;3.40;;;29.90;83.10;;;;;;4924644;29;20906;-59
2023/06/22 11:31:35;;;;;;;5.37;3.97;;;30.00;84.10;;;;;;4930331;29;20523;-60
2023/06/22 11:34:01;;;;;;;5.90;4.40;;;30.20;82.80;;;;;;4929758;29;20243;-60
2023/06/22 11:36:27;;;;;;;5.30;3.30;;;30.20;81.60;;;;;;4927699;29;20433;-60
2023/06/22 11:38:52;;;;;;;5.73;3.30;;;30.20;81.00;;;;;;4927280;29;20175;-60
2023/06/22 11:41:18;;;;;;;3.37;2.40;;;30.20;80.90;;;;;;4924496;29;20707;-60
2023/06/22 11:43:45;;;;;;;4.87;2.73;;;30.20;81.20;;;;;;4923137;29;20259;-60
2023/06/22 11:46:10;;;;;;;4.87;2.93;;;30.30;82.10;;;;;;4922958;29;20648;-60
2023/06/22 11:48:36;;;;;;;7.73;4.00;;;30.40;82.30;;;;;;4933239;29;20448;-60
2023/06/22 11:51:03;;;;;;;8.13;4.27;;;30.60;81.20;;;;;;4930830;29;20191;-59
2023/06/22 11:53:29;;;;;;;4.90;3.17;;;30.70;81.90;;;;;;4928573;29;20180;-60
2023/06/22 11:55:55;;;;;;;4.30;3.37;;;30.80;80.60;;;;;;4928620;29;20806;-60
2023/06/22 11:58:21;;;;;;;4.50;3.23;;;30.70;80.60;;;;;;4928023;29;20428;-60
2023/06/22 12:00:47;;;;;;;13.43;3.70;;;30.80;80.80;;;;;;4929972;29;20986;-61
2023/06/22 12:03:14;;;;;;;5.20;3.77;;;30.80;80.40;;;;;;4930331;29;20428;-61
2023/06/22 12:05:40;;;;;;;2.93;2.50;;;30.90;80.50;;;;;;4924451;29;20624;-61
2023/06/22 12:08:06;;;;;;;3.23;2.67;;;30.90;80.60;;;;;;4929027;29;20471;-61
2023/06/22 12:10:32;;;;;;;6.90;4.03;;;30.90;81.70;;;;;;4923675;29;20648;-60
2023/06/22 12:12:59;;;;;;;2.40;2.20;;;31.00;81.30;;;;;;4929729;29;20194;-61
2023/06/22 12:15:25;;;;;;;4.43;2.97;;;31.20;80.10;;;;;;4929235;29;20267;-61
2023/06/22 12:17:51;;;;;;;5.43;3.03;;;31.20;80.90;;;;;;4921985;29;20466;-62
2023/06/22 12:20:16;;;;;;;6.13;3.93;;;31.20;80.60;;;;;;4924335;29;20191;-62
2023/06/22 12:22:42;;;;;;;4.00;3.00;;;31.20;81.80;;;;;;4921756;29;20235;-62
2023/06/22 12:25:08;;;;;;;3.30;3.10;;;31.40;81.80;;;;;;4926490;29;20676;-62
2023/06/22 12:27:35;;;;;;;5.53;3.50;;;31.50;81.60;;;;;;4929844;29;20266;-62
2023/06/22 12:30:00;;;;;;;10.23;4.50;;;31.70;80.30;;;;;;4928660;29;20482;-62
2023/06/22 12:32:26;;;;;;;3.70;2.80;;;31.80;80.20;;;;;;4928871;29;20470;-63
2023/06/22 12:34:51;;;;;;;3.50;2.63;;;31.90;80.70;;;;;;4928521;29;20192;-62
2023/06/22 12:37:17;;;;;;;5.20;4.30;;;32.00;78.80;;;;;;4927170;29;20191;-62
2023/06/22 12:39:43;;;;;;;4.20;3.60;;;32.10;79.30;;;;;;4929030;29;20183;-62
2023/06/22 12:42:09;;;;;;;5.63;4.10;;;32.20;79.40;;;;;;4926394;29;20211;-62
2023/06/22 12:44:35;;;;;;;6.07;3.33;;;32.20;78.70;;;;;;4926916;29;20657;-63
2023/06/22 12:47:01;;;;;;;5.47;3.33;;;32.30;78.40;;;;;;4927193;29;20483;-62
2023/06/22 12:49:26;;;;;;;3.70;2.93;;;32.30;78.50;;;;;;4928906;29;20729;-62
2023/06/22 12:51:52;;;;;;;6.10;3.40;;;32.40;78.40;;;;;;4928006;29;20691;-62
2023/06/22 12:54:17;;;;;;;5.80;3.30;;;32.60;79.10;;;;;;4927663;29;20184;-62
2023/06/22 12:56:44;;;;;;;3.87;3.50;;;32.60;77.90;;;;;;4928602;29;20202;-62
2023/06/22 12:59:10;;;;;;;5.80;3.20;;;32.70;77.50;;;;;;4929902;29;20176;-62
2023/06/22 13:01:37;;;;;;;5.90;3.90;;;32.70;77.90;;;;;;4930648;29;20454;-63
2023/06/22 13:04:02;;;;;;;2.60;2.17;;;32.80;78.60;;;;;;4929739;29;20231;-63
2023/06/22 13:06:28;;;;;;;7.30;4.70;;;32.80;78.00;;;;;;4929244;29;20467;-63
2023/06/22 13:08:53;;;;;;;4.07;3.30;;;32.70;78.00;;;;;;4930405;29;20172;-62
2023/06/22 13:11:19;;;;;;;7.33;4.43;;;32.50;78.20;;;;;;4930760;29;20200;-62
2023/06/22 13:13:45;;;;;;;4.20;3.87;;;32.30;78.10;;;;;;4930677;29;20267;-63
2023/06/22 13:16:11;;;;;;;2.93;2.73;;;32.10;78.20;;;;;;4931804;29;20591;-63
2023/06/22 13:18:36;;;;;;;5.23;3.23;;;32.10;78.70;;;;;;4928564;29;20506;-63
2023/06/22 13:21:03;;;;;;;8.10;4.33;;;32.10;78.60;;;;;;4931262;29;20215;-63
2023/06/22 13:23:28;;;;;;;6.33;4.27;;;32.10;79.20;;;;;;4930555;29;20343;-62
2023/06/22 13:25:54;;;;;;;3.67;2.67;;;32.20;78.30;;;;;;4928116;29;20638;-63
2023/06/22 13:28:20;;;;;;;3.33;2.93;;;32.30;78.00;;;;;;4889595;29;1191253;-63
2023/06/22 13:30:47;;;;;;;7.30;3.73;;;32.40;78.40;;;;;;4930889;29;20307;-63
2023/06/22 13:33:16;;;;;;;3.23;2.23;;;32.50;79.60;;;;;;4926847;29;20518;-63
2023/06/22 13:35:44;;;;;;;3.57;3.17;;;32.70;79.20;;;;;;4926772;29;20435;-63
2023/06/22 13:38:10;;;;;;;5.60;4.33;;;32.90;78.50;;;;;;4930096;29;20452;-63
2023/06/22 13:40:37;;;;;;;3.60;3.50;;;33.10;79.10;;;;;;4928633;29;20511;-63
2023/06/22 13:43:04;;;;;;;5.97;3.27;;;33.20;77.90;;;;;;4925812;29;20553;-63
2023/06/22 13:45:29;;;;;;;4.60;3.40;;;33.20;77.80;;;;;;4922814;29;20619;-64
2023/06/22 13:47:55;;;;;;;3.43;3.17;;;33.30;77.50;;;;;;4930078;29;20467;-63
2023/06/22 13:50:20;;;;;;;5.73;3.23;;;33.30;77.60;;;;;;4925037;29;20652;-64
2023/06/22 13:52:46;;;;;;;3.57;3.33;;;33.40;77.30;;;;;;4928698;29;20486;-63
2023/06/22 13:55:14;;;;;;;12.30;4.30;;;33.40;76.70;;;;;;4923138;29;20175;-62
2023/06/22 13:57:40;;;;;;;4.40;2.77;;;33.40;76.20;;;;;;4930324;29;20175;-64
2023/06/22 14:00:06;;;;;;;11.27;5.07;;;33.40;76.90;;;;;;4930749;29;20959;-63
2023/06/22 14:02:32;;;;;;;4.80;2.77;;;33.30;76.60;;;;;;4929902;29;20459;-63
2023/06/22 14:04:57;;;;;;;5.27;3.27;;;33.20;76.80;;;;;;4925347;29;20529;-63
2023/06/22 14:07:24;;;;;;;4.03;2.90;;;33.10;77.50;;;;;;4920996;29;20301;-62
2023/06/22 14:09:50;;;;;;;10.70;4.03;;;33.20;78.00;;;;;;4929437;29;20175;-63
2023/06/22 14:12:17;;;;;;;3.30;2.90;;;33.30;77.80;;;;;;4927005;29;20452;-63
2023/06/22 14:14:43;;;;;;;8.23;3.37;;;33.30;77.60;;;;;;4929361;29;20522;-63
2023/06/22 14:17:08;;;;;;;5.70;3.57;;;33.50;78.10;;;;;;4933098;29;20570;-64
2023/06/22 14:19:34;;;;;;;3.90;3.60;;;33.60;76.90;;;;;;4928321;29;20266;-63
2023/06/22 14:21:59;;;;;;;19.90;3.57;;;33.70;77.30;;;;;;4926508;29;20204;-63
2023/06/22 14:24:25;;;;;;;5.00;3.30;;;33.80;77.10;;;;;;4923257;29;20180;-62
2023/06/22 14:26:50;;;;;;;3.33;3.10;;;33.80;76.10;;;;;;4923991;29;20212;-63
2023/06/22 14:29:16;;;;;;;5.77;3.53;;;33.90;76.70;;;;;;4933081;29;20297;-63
2023/06/22 14:31:45;;;;;;;4.00;3.07;;;34.00;76.50;;;;;;4933632;29;20231;-63
2023/06/22 14:34:10;;;;;;;5.13;3.50;;;34.00;76.50;;;;;;4933822;29;20214;-63
2023/06/22 14:36:36;;;;;;;7.20;3.53;;;34.10;75.60;;;;;;4927716;29;20438;-63
2023/06/22 14:39:02;;;;;;;6.57;3.67;;;34.10;75.40;;;;;;4928749;29;20667;-62
2023/06/22 14:41:27;;;;;;;6.47;4.07;;;33.90;75.10;;;;;;4932519;29;20212;-64
2023/06/22 14:43:53;;;;;;;4.43;3.67;;;33.80;76.20;;;;;;4933631;29;20251;-62
2023/06/22 14:46:19;;;;;;;3.33;2.87;;;33.80;76.20;;;;;;4933363;29;20612;-63
2023/06/22 14:48:44;;;;;;;3.67;3.10;;;33.80;76.40;;;;;;4934326;29;20180;-62
2023/06/22 14:51:11;;;;;;;3.53;3.13;;;33.70;76.10;;;;;;4928247;29;20447;-63
2023/06/22 14:53:37;;;;;;;6.30;4.10;;;33.50;76.40;;;;;;4924437;29;20251;-63
2023/06/22 14:56:03;;;;;;;4.77;3.50;;;33.40;76.60;;;;;;4931843;29;20931;-64
2023/06/22 14:58:38;;;;;;;3.57;3.10;;;33.30;76.90;;;;;;4932398;29;20176;-64
2023/06/22 15:01:04;;;;;;;3.70;3.47;;;33.20;77.80;;;;;;4930143;29;20725;-64
2023/06/22 15:03:35;;;;;;;12.57;3.97;;;33.00;78.50;;;;;;4929680;29;20917;-63
2023/06/22 15:06:01;;;;;;;4.70;4.40;;;32.90;77.80;;;;;;4933302;29;20219;-63
2023/06/22 15:08:27;;;;;;;7.00;4.00;;;32.80;78.20;;;;;;4933319;29;20497;-64
2023/06/22 15:10:52;;;;;;;5.00;4.20;;;32.70;77.80;;;;;;4932917;29;20996;-63
2023/06/22 15:13:18;;;;;;;3.00;2.57;;;32.50;77.60;;;;;;4932478;29;20802;-63
2023/06/22 15:15:47;;;;;;;5.63;2.90;;;32.30;78.50;;;;;;4934227;29;20188;-63
2023/06/22 15:18:14;;;;;;;4.83;3.60;;;32.30;78.60;;;;;;4934147;29;20455;-63
2023/06/22 15:20:39;;;;;;;4.40;3.93;;;32.20;78.90;;;;;;4932212;29;20462;-63
2023/06/22 15:23:06;;;;;;;3.60;3.40;;;32.40;79.30;;;;;;4934568;29;20412;-62
2023/06/22 15:25:32;;;;;;;3.83;3.70;;;32.40;79.30;;;;;;4932898;29;20271;-63
2023/06/22 15:27:57;;;;;;;5.40;3.47;;;32.40;79.70;;;;;;4934190;29;20509;-63
2023/06/22 15:30:23;;;;;;;7.30;4.07;;;32.40;79.40;;;;;;4933440;29;20521;-63
2023/06/22 15:32:49;;;;;;;6.33;4.57;;;32.30;79.30;;;;;;4933646;29;20184;-63
2023/06/22 15:35:17;;;;;;;5.17;3.50;;;32.20;78.90;;;;;;4929373;29;20180;-63
2023/06/22 15:37:42;;;;;;;4.77;3.17;;;32.10;79.40;;;;;;4932113;29;20271;-64
2023/06/22 15:40:08;;;;;;;13.00;4.00;;;32.00;79.00;;;;;;4931511;29;21006;-64
2023/06/22 15:42:35;;;;;;;4.63;2.70;;;31.90;80.00;;;;;;4933385;29;20187;-61
2023/06/22 15:45:00;;;;;;;9.27;5.40;;;32.10;80.00;;;;;;4932052;29;20218;-64
2023/06/22 15:47:26;;;;;;;4.23;2.97;;;32.20;79.60;;;;;;4931669;29;20474;-63
2023/06/22 15:49:51;;;;;;;3.80;3.03;;;32.30;78.40;;;;;;4926381;29;20208;-63
2023/06/22 15:52:20;;;;;;;6.20;3.60;;;32.40;78.20;;;;;;4933954;29;20227;-63
2023/06/22 15:54:46;;;;;;;3.70;3.33;;;32.30;78.50;;;;;;4934197;29;20287;-63
2023/06/22 15:57:15;;;;;;;4.53;3.60;;;32.30;78.10;;;;;;4930745;29;20604;-63
2023/06/22 15:59:41;;;;;;;4.57;3.60;;;32.20;78.10;;;;;;4931992;29;20274;-63
2023/06/22 16:02:08;;;;;;;8.00;3.80;;;32.20;78.30;;;;;;4928094;29;20454;-64
2023/06/22 16:04:34;;;;;;;5.60;3.53;;;32.20;78.30;;;;;;4930793;29;20424;-63
2023/06/22 16:06:59;;;;;;;5.90;4.07;;;32.20;78.70;;;;;;4931909;29;21034;-63
2023/06/22 16:09:25;;;;;;;7.17;4.17;;;32.10;78.80;;;;;;4928777;29;20532;-62
2023/06/22 16:11:51;;;;;;;4.30;3.07;;;32.00;79.30;;;;;;4926345;29;20203;-63
2023/06/22 16:14:17;;;;;;;5.90;3.67;;;32.00;79.40;;;;;;4922182;29;20483;-63
2023/06/22 16:16:42;;;;;;;4.77;2.90;;;32.00;79.60;;;;;;4923380;29;20188;-63
2023/06/22 16:19:08;;;;;;;6.10;3.60;;;32.00;79.30;;;;;;4930859;29;20839;-63
2023/06/22 16:21:33;;;;;;;5.03;3.40;;;32.00;79.20;;;;;;4931273;29;20207;-63
2023/06/22 16:23:59;;;;;;;6.53;3.77;;;31.90;79.30;;;;;;4930866;29;20188;-63
2023/06/22 16:26:24;;;;;;;6.33;3.40;;;31.80;79.60;;;;;;4929063;29;20203;-63
2023/06/22 16:28:50;;;;;;;5.50;4.00;;;31.70;79.50;;;;;;4931408;29;20227;-63
2023/06/22 16:31:16;;;;;;;7.27;4.20;;;31.60;79.60;;;;;;4929387;29;20251;-64
2023/06/22 16:33:47;;;;;;;5.80;4.30;;;31.50;79.90;;;;;;4931278;29;20183;-63
2023/06/22 16:36:16;;;;;;;13.30;5.07;;;31.40;80.10;;;;;;4930477;29;20223;-63
2023/06/22 16:38:43;;;;;;;6.73;4.17;;;31.30;80.60;;;;;;4928493;29;20424;-63
2023/06/22 16:41:09;;;;;;;5.80;4.67;;;31.20;81.20;;;;;;4927673;29;21039;-63
2023/06/22 16:43:37;;;;;;;4.40;3.80;;;31.10;81.10;;;;;;4920135;29;20521;-63
2023/06/22 16:46:02;;;;;;;6.90;4.10;;;31.10;81.30;;;;;;4941059;29;21064;-63